Time;durP1;ratioP1;P1;durP2;ratioP2;P2;SDS_P1;SDS_P2;PMS_P1;PMS_P2;Temp;Humidity;BMP_temperature;BMP_pressure;BME280_temperature;BME280_humidity;BME280_pressure;Samples;Min_cycle;Max_cycle;Signal;HPM_P1;HPM_P2
2022/02/04 00:05:52;;;;;;;8.15;4.30;;;;;;;;;;5115441;28;20040;-79
2022/02/04 00:24:56;;;;;;;6.25;4.10;;;;;;;;;;5117812;28;20122;-79
2022/02/04 00:27:27;;;;;;;6.18;3.92;;;;;;;;;;5119597;28;20058;-79
2022/02/04 00:30:00;;;;;;;6.70;4.15;;;;;;;;;;5118292;28;20048;-80
2022/02/04 00:32:31;;;;;;;7.78;4.25;;;;;;;;;;5112176;28;20044;-79
2022/02/04 00:35:08;;;;;;;8.25;4.43;;;;;;;;;;5116332;28;20531;-79
2022/02/04 00:37:43;;;;;;;6.75;4.28;;;;;;;;;;5119295;28;20054;-79
2022/02/04 00:40:16;;;;;;;9.85;3.78;;;;;;;;;;5121897;28;20522;-79
2022/02/04 00:42:42;;;;;;;10.25;5.25;;;;;;;;;;5122133;28;20044;-79
2022/02/04 00:45:18;;;;;;;10.80;5.00;;;;;;;;;;5122901;28;20051;-79
2022/02/04 00:47:53;;;;;;;10.43;5.55;;;;;;;;;;5119199;27;20130;-78
2022/02/04 00:50:27;;;;;;;14.05;7.18;;;;;;;;;;5116593;28;20463;-78
2022/02/04 00:53:07;;;;;;;15.23;7.20;;;;;;;;;;5116246;28;20079;-79
2022/02/04 00:55:41;;;;;;;12.55;7.03;;;;;;;;;;5118252;27;20035;-79
2022/02/04 01:26:16;;;;;;;14.27;7.78;;;;;;;;;;5117720;27;20104;-78
2022/02/04 01:28:45;;;;;;;11.65;6.50;;;;;;;;;;5115273;28;20071;-79
2022/02/04 01:31:15;;;;;;;13.88;7.57;;;;;;;;;;5114635;28;20120;-77
2022/02/04 01:33:41;;;;;;;12.18;6.70;;;;;;;;;;5111885;28;20066;-78
2022/02/04 01:36:12;;;;;;;10.85;5.30;;;;;;;;;;5114192;27;20056;-78
2022/02/04 01:38:39;;;;;;;12.07;6.55;;;;;;;;;;5115039;28;20072;-78
2022/02/04 01:41:07;;;;;;;12.35;6.53;;;;;;;;;;5116667;27;20085;-79
2022/02/04 01:43:34;;;;;;;11.32;6.57;;;;;;;;;;5113658;28;20040;-78
2022/02/04 01:46:03;;;;;;;9.73;5.90;;;;;;;;;;5116373;27;20074;-78
2022/02/04 01:48:30;;;;;;;11.90;6.60;;;;;;;;;;5116218;27;20055;-79
2022/02/04 01:50:56;;;;;;;13.90;7.03;;;;;;;;;;5115786;28;20450;-79
2022/02/04 01:53:28;;;;;;;11.45;6.45;;;;;;;;;;5116258;28;20491;-79
2022/02/04 01:55:56;;;;;;;11.50;6.53;;;;;;;;;;5114767;28;20046;-79
2022/02/04 01:58:23;;;;;;;10.48;6.43;;;;;;;;;;5116234;28;20063;-79
2022/02/04 02:00:49;;;;;;;11.27;6.07;;;;;;;;;;5116133;28;20048;-79
2022/02/04 02:03:17;;;;;;;11.05;6.18;;;;;;;;;;5117890;27;20061;-78
2022/02/04 02:05:44;;;;;;;13.45;6.53;;;;;;;;;;5115069;28;20491;-79
2022/02/04 02:08:13;;;;;;;13.27;7.30;;;;;;;;;;5116232;27;20384;-78
2022/02/04 02:10:41;;;;;;;17.33;7.55;;;;;;;;;;5116091;28;20048;-78
2022/02/04 02:13:17;;;;;;;12.98;6.95;;;;;;;;;;5113889;28;20097;-79
2022/02/04 02:15:52;;;;;;;;;;;;;;;;;;5114042;28;20560;-78
2022/02/04 02:43:25;;;;;;;17.33;8.68;;;;;;;;;;5113539;28;20050;-79
2022/02/04 02:46:10;;;;;;;14.63;8.18;;;;;;;;;;5114494;28;20048;-79
2022/02/04 02:48:57;;;;;;;13.95;7.57;;;;;;;;;;5113859;28;20069;-78
2022/02/04 02:51:49;;;;;;;16.42;8.63;;;;;;;;;;5115075;28;20051;-78
2022/02/04 03:00:10;;;;;;;22.10;10.63;;;;;;;;;;5111794;28;20048;-79
2022/02/04 03:02:38;;;;;;;20.55;10.88;;;;;;;;;;5110470;28;20047;-78
2022/02/04 03:05:05;;;;;;;23.08;11.00;;;;;;;;;;5114291;28;20047;-79
2022/02/04 03:07:31;;;;;;;22.45;10.82;;;;;;;;;;5115308;28;20453;-78
2022/02/04 03:09:59;;;;;;;19.55;11.18;;;;;;;;;;5115047;28;20047;-79
2022/02/04 03:12:28;;;;;;;23.58;12.07;;;;;;;;;;5109682;28;21043;-79
2022/02/04 03:14:54;;;;;;;20.08;10.27;;;;;;;;;;5114821;28;20441;-79
2022/02/04 03:17:21;;;;;;;20.40;10.80;;;;;;;;;;5113959;28;20600;-79
2022/02/04 03:19:51;;;;;;;21.90;10.27;;;;;;;;;;5112999;28;20056;-78
2022/02/04 03:22:18;;;;;;;19.90;10.50;;;;;;;;;;5114935;28;20074;-80
2022/02/04 03:24:53;;;;;;;22.10;10.93;;;;;;;;;;5114194;28;20463;-79
2022/02/04 03:27:21;;;;;;;20.50;10.93;;;;;;;;;;5115855;28;20385;-79
2022/02/04 03:30:02;;;;;;;20.60;10.52;;;;;;;;;;5113905;28;20515;-78
2022/02/04 03:32:40;;;;;;;22.65;10.70;;;;;;;;;;5109904;28;20039;-79
2022/02/04 03:35:08;;;;;;;21.55;11.45;;;;;;;;;;5112188;28;20096;-78
2022/02/04 03:37:34;;;;;;;21.33;9.70;;;;;;;;;;5112014;27;20036;-79
2022/02/04 03:40:01;;;;;;;20.85;11.27;;;;;;;;;;5116033;27;20518;-79
2022/02/04 03:42:29;;;;;;;21.65;11.05;;;;;;;;;;5117800;27;20048;-79
2022/02/04 03:44:56;;;;;;;21.27;10.98;;;;;;;;;;5117834;28;20043;-78
2022/02/04 03:47:22;;;;;;;19.80;10.82;;;;;;;;;;5117353;28;20519;-78
2022/02/04 03:49:49;;;;;;;20.23;11.13;;;;;;;;;;5117091;28;20488;-78
2022/02/04 03:52:15;;;;;;;21.10;11.38;;;;;;;;;;5118572;27;20035;-78
2022/02/04 03:54:42;;;;;;;22.33;11.50;;;;;;;;;;5116493;28;20075;-79
2022/02/04 03:57:08;;;;;;;18.98;10.20;;;;;;;;;;5117566;28;20141;-77
2022/02/04 03:59:36;;;;;;;21.20;10.95;;;;;;;;;;5117134;28;20071;-78
2022/02/04 04:02:03;;;;;;;19.35;9.45;;;;;;;;;;5117232;27;20096;-77
2022/02/04 04:04:33;;;;;;;17.83;9.60;;;;;;;;;;5120962;27;20100;-77
2022/02/04 04:07:00;;;;;;;19.60;9.88;;;;;;;;;;5115244;28;20047;-78
2022/02/04 04:09:27;;;;;;;22.45;11.82;;;;;;;;;;5117629;28;20392;-78
2022/02/04 04:11:55;;;;;;;22.08;10.77;;;;;;;;;;5117028;28;21724;-79
2022/02/04 04:14:21;;;;;;;17.55;9.70;;;;;;;;;;5117583;28;20050;-77
2022/02/04 04:16:49;;;;;;;19.67;10.23;;;;;;;;;;5111339;28;20513;-80
2022/02/04 04:19:16;;;;;;;20.50;10.45;;;;;;;;;;5089574;28;20048;-78
2022/02/04 04:21:43;;;;;;;19.92;9.65;;;;;;;;;;5098725;28;20047;-79
2022/02/04 04:24:09;;;;;;;17.25;9.95;;;;;;;;;;5099530;28;20067;-79
2022/02/04 04:26:38;;;;;;;19.80;10.43;;;;;;;;;;5098284;28;20072;-79
2022/02/04 04:29:04;;;;;;;17.15;9.98;;;;;;;;;;5099561;28;20067;-79
2022/02/04 04:31:31;;;;;;;17.90;9.13;;;;;;;;;;5098022;28;20076;-79
2022/02/04 04:33:59;;;;;;;17.23;9.63;;;;;;;;;;5095025;28;20044;-78
2022/02/04 04:36:25;;;;;;;19.38;9.65;;;;;;;;;;5097376;28;20040;-78
2022/02/04 04:38:58;;;;;;;17.40;8.77;;;;;;;;;;5097183;28;20595;-79
2022/02/04 04:41:33;;;;;;;17.50;8.75;;;;;;;;;;5097874;28;20067;-78
2022/02/04 05:25:44;;;;;;;20.08;11.27;;;;;;;;;;5091277;28;20048;-79
2022/02/04 05:26:02;;;;;;;23.27;10.48;;;;;;;;;;5095530;28;20193;-78
2022/02/04 05:28:37;;;;;;;20.02;10.52;;;;;;;;;;5093395;28;20064;-78
2022/02/04 05:31:04;;;;;;;28.50;13.23;;;;;;;;;;5097549;28;20125;-78
2022/02/04 05:33:31;;;;;;;28.85;14.00;;;;;;;;;;5097559;28;20068;-77
2022/02/04 05:35:57;;;;;;;23.02;11.73;;;;;;;;;;5097753;28;20059;-77
2022/02/04 05:38:27;;;;;;;23.80;12.30;;;;;;;;;;5098507;28;20460;-79
2022/02/04 05:40:54;;;;;;;22.35;12.60;;;;;;;;;;5095498;28;20454;-79
2022/02/04 05:43:24;;;;;;;23.55;12.32;;;;;;;;;;5097731;28;20058;-78
2022/02/04 05:45:59;;;;;;;23.48;12.38;;;;;;;;;;5094547;28;20072;-78
2022/02/04 05:48:27;;;;;;;23.88;11.45;;;;;;;;;;5096864;28;20040;-78
2022/02/04 05:51:07;;;;;;;21.38;10.50;;;;;;;;;;5093255;28;20047;-78
2022/02/04 05:53:42;;;;;;;19.67;10.45;;;;;;;;;;5092661;28;20040;-79
2022/02/04 05:56:15;;;;;;;23.05;10.95;;;;;;;;;;5094343;28;20043;-78
2022/02/04 05:59:00;;;;;;;20.98;9.82;;;;;;;;;;5094621;28;20070;-79
2022/02/04 06:01:36;;;;;;;19.08;9.38;;;;;;;;;;5075466;28;20079;-78
2022/02/04 06:10:20;;;;;;;18.63;10.35;;;;;;;;;;4859167;27;8232419;-77
2022/02/04 06:23:42;;;;;;;17.52;9.23;;;;;;;;;;5135695;27;20066;-78
2022/02/04 06:26:10;;;;;;;18.80;9.25;;;;;;;;;;5127270;28;20956;-78
2022/02/04 06:28:38;;;;;;;18.48;10.55;;;;;;;;;;5128991;28;20048;-79
2022/02/04 06:31:05;;;;;;;19.55;9.27;;;;;;;;;;5125823;28;20043;-79
2022/02/04 06:33:32;;;;;;;16.50;8.82;;;;;;;;;;5126650;27;20138;-79
2022/02/04 06:35:58;;;;;;;30.95;10.45;;;;;;;;;;5131133;28;20078;-78
2022/02/04 06:38:26;;;;;;;20.10;10.65;;;;;;;;;;5131211;28;20099;-78
2022/02/04 06:40:52;;;;;;;26.02;12.45;;;;;;;;;;5130193;28;20092;-79
2022/02/04 06:43:20;;;;;;;28.17;12.93;;;;;;;;;;5128085;28;20075;-79
2022/02/04 06:45:47;;;;;;;26.67;13.18;;;;;;;;;;5130643;28;20078;-78
2022/02/04 06:48:13;;;;;;;25.80;12.68;;;;;;;;;;5128273;28;20047;-79
2022/02/04 06:50:40;;;;;;;21.77;11.07;;;;;;;;;;5123906;28;20075;-79
2022/02/04 06:53:08;;;;;;;25.38;13.30;;;;;;;;;;5130163;28;21466;-79
2022/02/04 06:55:34;;;;;;;23.90;11.68;;;;;;;;;;5130629;28;20039;-79
2022/02/04 06:58:02;;;;;;;19.00;11.10;;;;;;;;;;5131937;28;20055;-78
2022/02/04 07:00:30;;;;;;;21.83;11.35;;;;;;;;;;5131352;28;20051;-79
2022/02/04 07:02:57;;;;;;;20.17;11.50;;;;;;;;;;5126472;28;20104;-79
2022/02/04 07:05:24;;;;;;;19.42;10.32;;;;;;;;;;5129468;28;20101;-78
2022/02/04 07:07:59;;;;;;;18.13;10.15;;;;;;;;;;5130332;28;20064;-78
2022/02/04 07:10:33;;;;;;;17.00;10.17;;;;;;;;;;5128801;28;20092;-78
2022/02/04 07:13:08;;;;;;;18.77;10.45;;;;;;;;;;5129835;28;20281;-79
2022/02/04 07:15:54;;;;;;;19.88;10.80;;;;;;;;;;5130747;28;20046;-79
2022/02/04 07:21:06;;;;;;;17.45;10.43;;;;;;;;;;5119151;28;20096;-79
2022/02/04 07:23:33;;;;;;;19.92;10.30;;;;;;;;;;5111708;28;20165;-80
2022/02/04 07:26:00;;;;;;;17.80;10.57;;;;;;;;;;5117013;28;20510;-80
2022/02/04 07:28:26;;;;;;;19.17;10.85;;;;;;;;;;5115450;28;20088;-78
2022/02/04 07:30:55;;;;;;;20.50;12.13;;;;;;;;;;5117852;28;20101;-79
2022/02/04 07:33:26;;;;;;;17.98;11.05;;;;;;;;;;5116826;28;20048;-79
2022/02/04 07:41:19;;;;;;;19.08;10.27;;;;;;;;;;5107876;28;20051;-79
2022/02/04 07:43:45;;;;;;;20.00;10.40;;;;;;;;;;5113730;28;20091;-80
2022/02/04 07:46:16;;;;;;;17.27;10.25;;;;;;;;;;5113670;28;20499;-79
2022/02/04 07:48:42;;;;;;;15.80;9.43;;;;;;;;;;5115882;28;20044;-80
2022/02/04 07:51:09;;;;;;;20.15;10.23;;;;;;;;;;5115956;28;20078;-79
2022/02/04 07:53:36;;;;;;;19.85;10.02;;;;;;;;;;5108693;28;20039;-79
2022/02/04 07:56:04;;;;;;;18.83;10.80;;;;;;;;;;5112208;28;20043;-79
2022/02/04 07:58:30;;;;;;;17.63;9.95;;;;;;;;;;5107711;28;20095;-80
2022/02/04 08:00:59;;;;;;;18.67;10.93;;;;;;;;;;5113093;28;20466;-78
2022/02/04 08:03:34;;;;;;;16.52;9.18;;;;;;;;;;5107981;28;20063;-78
2022/02/04 08:06:06;;;;;;;18.50;9.83;;;;;;;;;;5113029;28;20404;-80
2022/02/04 08:08:39;;;;;;;14.98;8.48;;;;;;;;;;5109832;28;20060;-81
2022/02/04 08:11:16;;;;;;;17.70;9.60;;;;;;;;;;5107813;28;20043;-80
2022/02/04 08:22:20;;;;;;;15.25;9.80;;;;;;;;;;5110476;28;20093;-80
2022/02/04 08:30:43;;;;;;;15.63;9.75;;;;;;;;;;5113783;28;20050;-80
2022/02/04 08:36:27;;;;;;;15.40;9.70;;;;;;;;;;5111604;28;20100;-80
2022/02/04 08:50:42;;;;;;;12.13;7.60;;;;;;;;;;5148619;27;20487;-79
2022/02/04 08:53:33;;;;;;;12.50;8.30;;;;;;;;;;5146283;27;20421;-78
2022/02/04 08:55:59;;;;;;;12.48;8.13;;;;;;;;;;5140115;27;20126;-78
2022/02/04 08:58:32;;;;;;;16.90;9.15;;;;;;;;;;5141114;27;20409;-79
2022/02/04 09:01:05;;;;;;;14.93;9.57;;;;;;;;;;5144902;27;20045;-80
2022/02/04 09:03:40;;;;;;;14.88;8.45;;;;;;;;;;5149641;27;20482;-78
2022/02/04 09:06:11;;;;;;;11.88;8.40;;;;;;;;;;5145186;27;20507;-80
2022/02/04 09:08:41;;;;;;;12.65;8.13;;;;;;;;;;5144474;27;20042;-79
2022/02/04 09:11:13;;;;;;;15.05;9.65;;;;;;;;;;5138637;27;20054;-78
2022/02/04 09:19:13;;;;;;;13.50;8.18;;;;;;;;;;5138744;27;20062;-77
2022/02/04 09:24:33;;;;;;;16.02;9.45;;;;;;;;;;5146386;27;20043;-76
2022/02/04 09:26:59;;;;;;;16.08;9.40;;;;;;;;;;5149390;27;20133;-77
2022/02/04 09:29:27;;;;;;;16.42;10.15;;;;;;;;;;5149813;27;20077;-78
2022/02/04 09:31:53;;;;;;;14.88;8.95;;;;;;;;;;5149540;27;20075;-79
2022/02/04 09:34:20;;;;;;;17.17;9.40;;;;;;;;;;5147131;27;20099;-76
2022/02/04 09:36:46;;;;;;;17.48;9.15;;;;;;;;;;5147734;27;20497;-76
2022/02/04 09:39:13;;;;;;;14.82;8.52;;;;;;;;;;5143998;27;20043;-79
2022/02/04 09:41:40;;;;;;;15.63;9.48;;;;;;;;;;5146626;27;20090;-79
2022/02/04 09:44:07;;;;;;;14.55;8.63;;;;;;;;;;5149634;27;20100;-76
2022/02/04 09:46:36;;;;;;;14.68;7.82;;;;;;;;;;5149724;27;20035;-79
2022/02/04 09:49:05;;;;;;;11.43;7.13;;;;;;;;;;5146487;27;20043;-77
2022/02/04 09:51:49;;;;;;;11.20;7.50;;;;;;;;;;5145407;27;20078;-78
2022/02/04 10:08:36;;;;;;;12.68;7.32;;;;;;;;;;5139036;27;20467;-77
2022/02/04 10:14:09;;;;;;;13.57;8.02;;;;;;;;;;5129196;27;20051;-78
2022/02/04 10:16:55;;;;;;;17.27;7.50;;;;;;;;;;5126338;27;20043;-77
2022/02/04 10:19:28;;;;;;;13.57;7.80;;;;;;;;;;5127236;27;20039;-78
2022/02/04 10:21:57;;;;;;;13.70;7.90;;;;;;;;;;5139517;27;20059;-78
2022/02/04 10:24:24;;;;;;;11.93;6.97;;;;;;;;;;5135415;27;20043;-77
2022/02/04 10:27:09;;;;;;;11.48;7.10;;;;;;;;;;5126488;27;20086;-74
2022/02/04 10:29:35;;;;;;;10.35;6.55;;;;;;;;;;5127329;27;20090;-77
2022/02/04 10:32:02;;;;;;;11.43;7.07;;;;;;;;;;5123919;27;20192;-76
2022/02/04 10:46:34;;;;;;;11.88;5.32;;;;;;;;;;5023104;28;20136;-73
2022/02/04 10:49:24;;;;;;;8.57;5.13;;;;;;;;;;5030916;28;20046;-74
2022/02/04 10:58:09;;;;;;;9.23;5.10;;;;;;;;;;5032658;28;20045;-73
2022/02/04 11:03:19;;;;;;;11.18;5.28;;;;;;;;;;5029685;28;20049;-74
2022/02/04 11:05:52;;;;;;;9.13;4.97;;;;;;;;;;5030479;28;20045;-75
2022/02/04 11:11:48;;;;;;;8.13;4.53;;;;;;;;;;5032764;28;20045;-74
2022/02/04 11:31:07;;;;;;;6.00;3.80;;;;;;;;;;5030010;28;20099;-75
2022/02/04 11:34:09;;;;;;;5.90;3.47;;;;;;;;;;5033445;28;20038;-74
2022/02/04 11:37:05;;;;;;;6.28;3.42;;;;;;;;;;5025564;28;20525;-78
2022/02/04 11:49:06;;;;;;;;;;;;;;;;;;5017552;28;20052;-76
2022/02/04 11:51:48;;;;;;;6.28;3.50;;;;;;;;;;5012856;28;20055;-75
2022/02/04 11:54:39;;;;;;;6.30;3.13;;;;;;;;;;5012957;28;20042;-75
2022/02/04 11:57:26;;;;;;;6.22;3.72;;;;;;;;;;5014767;28;20054;-75
2022/02/04 12:00:00;;;;;;;8.05;4.80;;;;;;;;;;5013529;28;20045;-75
2022/02/04 12:02:36;;;;;;;8.68;4.43;;;;;;;;;;5013272;28;20137;-75
2022/02/04 12:05:31;;;;;;;9.18;5.25;;;;;;;;;;5012920;28;20049;-75
2022/02/04 12:08:18;;;;;;;7.53;4.35;;;;;;;;;;5012491;28;20085;-76
2022/02/04 12:10:46;;;;;;;8.05;3.63;;;;;;;;;;5011121;28;20129;-76
2022/02/04 12:13:14;;;;;;;7.43;5.05;;;;;;;;;;5012842;28;20111;-79
2022/02/04 12:15:43;;;;;;;9.80;4.72;;;;;;;;;;5011911;28;20046;-79
2022/02/04 12:18:11;;;;;;;8.43;4.95;;;;;;;;;;5013346;28;20084;-79
2022/02/04 12:21:00;;;;;;;7.63;4.30;;;;;;;;;;5009465;28;20140;-77
2022/02/04 12:23:49;;;;;;;8.65;4.50;;;;;;;;;;5013650;28;20077;-78
2022/02/04 12:26:19;;;;;;;8.50;4.90;;;;;;;;;;5010480;28;20064;-80
2022/02/04 12:28:48;;;;;;;7.97;5.20;;;;;;;;;;5001844;28;20065;-77
2022/02/04 12:31:17;;;;;;;7.70;5.13;;;;;;;;;;5011194;28;20054;-76
2022/02/04 12:33:45;;;;;;;7.35;4.90;;;;;;;;;;5010490;28;20060;-77
2022/02/04 12:36:15;;;;;;;11.35;5.15;;;;;;;;;;5014305;28;20069;-77
2022/02/04 12:38:43;;;;;;;9.30;5.18;;;;;;;;;;5013378;28;20100;-77
2022/02/04 12:41:20;;;;;;;7.93;5.30;;;;;;;;;;5011414;28;20159;-77
2022/02/04 12:43:48;;;;;;;9.18;5.28;;;;;;;;;;5011785;28;20077;-77
2022/02/04 12:46:14;;;;;;;7.78;5.00;;;;;;;;;;5000942;28;20078;-77
2022/02/04 12:48:41;;;;;;;10.23;5.25;;;;;;;;;;5002882;28;20084;-77
2022/02/04 12:51:10;;;;;;;13.07;6.88;;;;;;;;;;4997262;28;20113;-77
2022/02/04 12:53:42;;;;;;;12.02;5.10;;;;;;;;;;5008196;28;20053;-77
2022/02/04 12:56:21;;;;;;;7.47;4.80;;;;;;;;;;5000841;28;20061;-76
2022/02/04 12:59:11;;;;;;;7.65;5.00;;;;;;;;;;5009225;28;20054;-76
2022/02/04 13:07:37;;;;;;;9.05;5.25;;;;;;;;;;5005103;28;20048;-76
2022/02/04 13:10:04;;;;;;;12.80;5.35;;;;;;;;;;5010679;28;20490;-77
2022/02/04 13:12:31;;;;;;;12.98;4.82;;;;;;;;;;5008055;28;20088;-78
2022/02/04 13:15:12;;;;;;;8.35;4.90;;;;;;;;;;4998366;28;20143;-77
2022/02/04 13:17:38;;;;;;;11.10;5.00;;;;;;;;;;4999545;28;20078;-77
2022/02/04 13:20:06;;;;;;;8.50;4.80;;;;;;;;;;5000397;28;20037;-77
2022/02/04 13:22:33;;;;;;;7.97;4.63;;;;;;;;;;5003639;28;20137;-77
2022/02/04 13:25:08;;;;;;;7.95;4.63;;;;;;;;;;5000376;28;20483;-78
2022/02/04 13:27:35;;;;;;;7.15;4.45;;;;;;;;;;5004040;28;20045;-77
2022/02/04 13:30:24;;;;;;;7.20;4.40;;;;;;;;;;5002446;28;20086;-78
2022/02/04 13:32:51;;;;;;;7.15;4.10;;;;;;;;;;5014927;28;20085;-77
2022/02/04 13:35:25;;;;;;;7.82;4.63;;;;;;;;;;5007975;28;20080;-77
2022/02/04 13:37:55;;;;;;;12.38;4.63;;;;;;;;;;5002899;28;20056;-77
2022/02/04 13:40:32;;;;;;;7.78;4.45;;;;;;;;;;4999236;28;20046;-78
2022/02/04 13:43:28;;;;;;;10.15;5.00;;;;;;;;;;5001708;28;20484;-79
2022/02/04 13:46:04;;;;;;;9.75;5.50;;;;;;;;;;5009910;28;20077;-76
2022/02/04 13:48:51;;;;;;;7.78;4.97;;;;;;;;;;5013350;28;20049;-76
2022/02/04 13:51:25;;;;;;;7.22;3.90;;;;;;;;;;5012715;28;20046;-79
2022/02/04 13:54:25;;;;;;;7.97;4.30;;;;;;;;;;5006856;28;20052;-76
2022/02/04 13:57:10;;;;;;;8.98;4.80;;;;;;;;;;5013826;28;20042;-77
2022/02/04 13:59:44;;;;;;;10.63;5.28;;;;;;;;;;5013358;28;20078;-77
2022/02/04 14:02:16;;;;;;;6.72;4.30;;;;;;;;;;5011834;28;20073;-76
2022/02/04 14:04:59;;;;;;;9.30;5.00;;;;;;;;;;5011892;28;20165;-77
2022/02/04 14:07:38;;;;;;;6.88;3.97;;;;;;;;;;5015755;28;20045;-77
2022/02/04 14:10:16;;;;;;;8.68;5.35;;;;;;;;;;5016092;28;20042;-79
2022/02/04 14:12:49;;;;;;;7.88;4.55;;;;;;;;;;5014234;28;20149;-80
2022/02/04 14:15:16;;;;;;;6.57;4.20;;;;;;;;;;5015285;28;20116;-77
2022/02/04 14:17:44;;;;;;;6.50;4.18;;;;;;;;;;5013864;28;20069;-77
2022/02/04 14:20:11;;;;;;;9.10;3.65;;;;;;;;;;5013761;28;20125;-77
2022/02/04 14:22:38;;;;;;;8.45;3.55;;;;;;;;;;5013740;28;20112;-77
2022/02/04 14:25:05;;;;;;;6.82;4.00;;;;;;;;;;5013090;28;20137;-76
2022/02/04 14:27:32;;;;;;;6.57;3.45;;;;;;;;;;5014347;28;20548;-75
2022/02/04 14:30:03;;;;;;;7.55;3.53;;;;;;;;;;5012565;28;20046;-77
2022/02/04 14:32:38;;;;;;;6.43;3.50;;;;;;;;;;5013502;28;20100;-77
2022/02/04 14:35:18;;;;;;;7.17;3.50;;;;;;;;;;5016357;28;20410;-79
2022/02/04 14:54:12;;;;;;;5.43;2.70;;;;;;;;;;4979827;28;20050;-77
2022/02/04 15:02:11;;;;;;;4.40;2.53;;;;;;;;;;4981591;28;20057;-77
2022/02/04 15:04:43;;;;;;;4.60;2.70;;;;;;;;;;4986023;28;20133;-76
2022/02/04 15:07:12;;;;;;;4.88;2.97;;;;;;;;;;4980989;28;20046;-76
2022/02/04 15:09:46;;;;;;;4.95;2.78;;;;;;;;;;4980852;28;20046;-78
2022/02/04 15:12:13;;;;;;;7.07;3.10;;;;;;;;;;4991435;28;20050;-76
2022/02/04 15:14:39;;;;;;;4.50;2.47;;;;;;;;;;4977669;28;20078;-76
2022/02/04 15:17:06;;;;;;;4.97;3.10;;;;;;;;;;4995249;28;20133;-76
2022/02/04 15:19:34;;;;;;;6.57;2.85;;;;;;;;;;4994135;28;20138;-77
2022/02/04 15:22:03;;;;;;;4.50;2.42;;;;;;;;;;4983781;28;20097;-78
2022/02/04 15:24:31;;;;;;;4.88;2.55;;;;;;;;;;4990860;28;20068;-76
2022/02/04 15:26:58;;;;;;;3.95;2.33;;;;;;;;;;4988474;28;20495;-76
2022/02/04 15:29:25;;;;;;;5.38;2.47;;;;;;;;;;4985432;28;20043;-77
2022/02/04 15:31:55;;;;;;;4.47;2.60;;;;;;;;;;4996064;28;20479;-77
2022/02/04 15:34:23;;;;;;;5.68;2.47;;;;;;;;;;4986705;28;20045;-76
2022/02/04 15:36:50;;;;;;;5.55;2.67;;;;;;;;;;4981708;28;20202;-77
2022/02/04 15:39:19;;;;;;;5.40;2.85;;;;;;;;;;4983815;28;20043;-79
2022/02/04 15:41:50;;;;;;;4.55;2.40;;;;;;;;;;4992767;28;20129;-76
2022/02/04 15:44:23;;;;;;;4.93;2.60;;;;;;;;;;4989600;28;20050;-78
2022/02/04 15:47:17;;;;;;;5.93;2.88;;;;;;;;;;4991067;28;20073;-77
2022/02/04 15:58:11;;;;;;;4.88;2.38;;;;;;;;;;4990643;28;20105;-76
2022/02/04 16:00:57;;;;;;;4.72;3.03;;;;;;;;;;4990946;28;20047;-78
2022/02/04 16:06:11;;;;;;;5.25;2.65;;;;;;;;;;4991412;28;20093;-77
2022/02/04 16:08:38;;;;;;;5.30;2.83;;;;;;;;;;4990512;28;20138;-80
2022/02/04 16:11:16;;;;;;;6.10;2.90;;;;;;;;;;4990929;28;20042;-77
2022/02/04 16:13:49;;;;;;;5.78;2.50;;;;;;;;;;4990219;28;20042;-77
2022/02/04 16:16:27;;;;;;;5.30;2.85;;;;;;;;;;4988440;28;20046;-77
2022/02/04 16:19:05;;;;;;;9.02;4.13;;;;;;;;;;4988416;28;20140;-76
2022/02/04 16:21:40;;;;;;;7.40;3.72;;;;;;;;;;4992295;28;20065;-77
2022/02/04 16:24:33;;;;;;;4.30;2.40;;;;;;;;;;4990143;28;20643;-77
2022/02/04 16:27:11;;;;;;;4.97;2.90;;;;;;;;;;4990087;28;20054;-78
2022/02/04 16:29:42;;;;;;;6.32;3.53;;;;;;;;;;4982048;28;20047;-78
2022/02/04 16:32:09;;;;;;;4.25;2.42;;;;;;;;;;4990818;28;20089;-76
2022/02/04 16:34:38;;;;;;;5.18;2.85;;;;;;;;;;4983151;28;20069;-76
2022/02/04 16:37:16;;;;;;;6.03;3.53;;;;;;;;;;4987217;28;20465;-76
2022/02/04 16:39:44;;;;;;;5.75;3.28;;;;;;;;;;4985713;28;20488;-77
2022/02/04 16:42:14;;;;;;;6.03;3.58;;;;;;;;;;4990345;28;20145;-76
2022/02/04 16:44:43;;;;;;;6.00;3.47;;;;;;;;;;4990657;28;20132;-76
2022/02/04 16:47:10;;;;;;;4.88;2.63;;;;;;;;;;5006933;28;20550;-76
2022/02/04 16:49:37;;;;;;;6.07;3.22;;;;;;;;;;5011329;28;20069;-76
2022/02/04 16:52:04;;;;;;;6.03;3.70;;;;;;;;;;5009320;28;20570;-76
2022/02/04 16:54:33;;;;;;;5.55;3.13;;;;;;;;;;5012239;28;20127;-76
2022/02/04 16:57:00;;;;;;;5.88;3.28;;;;;;;;;;5012473;28;20042;-76
2022/02/04 16:59:27;;;;;;;6.15;3.50;;;;;;;;;;5011738;28;20074;-76
2022/02/04 17:01:56;;;;;;;6.75;3.28;;;;;;;;;;5010662;28;20125;-75
2022/02/04 17:04:23;;;;;;;6.85;3.60;;;;;;;;;;5022845;28;20053;-81
2022/02/04 17:06:57;;;;;;;5.90;3.03;;;;;;;;;;5014445;28;20077;-76
2022/02/04 17:09:29;;;;;;;4.60;2.50;;;;;;;;;;5012501;28;20054;-76
2022/02/04 17:12:02;;;;;;;5.22;2.40;;;;;;;;;;5019240;28;20049;-75
2022/02/04 17:14:30;;;;;;;6.70;2.90;;;;;;;;;;5016451;28;20048;-78
2022/02/04 17:16:59;;;;;;;4.88;2.55;;;;;;;;;;5016101;28;20143;-76
2022/02/04 17:19:29;;;;;;;3.97;2.40;;;;;;;;;;5014731;28;20077;-75
2022/02/04 17:21:59;;;;;;;5.90;2.42;;;;;;;;;;5014967;28;20046;-75
2022/02/04 17:24:26;;;;;;;4.20;2.10;;;;;;;;;;5013435;28;20045;-76
2022/02/04 17:26:52;;;;;;;5.80;3.00;;;;;;;;;;5017719;28;20081;-75
2022/02/04 17:29:19;;;;;;;4.57;2.40;;;;;;;;;;5015903;28;20054;-76
2022/02/04 17:31:45;;;;;;;4.88;2.22;;;;;;;;;;5013870;28;20085;-76
2022/02/04 17:34:16;;;;;;;3.75;1.92;;;;;;;;;;5014321;28;20439;-76
2022/02/04 17:36:43;;;;;;;3.90;1.95;;;;;;;;;;5014803;28;20070;-76
2022/02/04 17:39:16;;;;;;;4.13;1.95;;;;;;;;;;5016051;28;20128;-78
2022/02/04 17:41:43;;;;;;;5.38;2.30;;;;;;;;;;5017013;28;20052;-77
2022/02/04 17:44:09;;;;;;;4.47;2.40;;;;;;;;;;5009194;28;20066;-77
2022/02/04 17:46:36;;;;;;;4.60;2.30;;;;;;;;;;5015965;28;20045;-77
2022/02/04 17:49:11;;;;;;;5.22;2.95;;;;;;;;;;5015416;28;20229;-76
2022/02/04 17:51:46;;;;;;;3.78;2.47;;;;;;;;;;5013538;28;20037;-76
2022/02/04 17:54:16;;;;;;;4.93;2.60;;;;;;;;;;5013630;28;20053;-76
2022/02/04 17:56:58;;;;;;;3.35;1.92;;;;;;;;;;5012861;28;20505;-77
2022/02/04 17:59:47;;;;;;;5.18;2.85;;;;;;;;;;5014073;28;20398;-76
2022/02/04 18:02:27;;;;;;;5.75;3.15;;;;;;;;;;5011926;28;20042;-76
2022/02/04 18:07:39;;;;;;;3.80;1.77;;;;;;;;;;5016073;28;20049;-75
2022/02/04 18:10:08;;;;;;;3.88;1.70;;;;;;;;;;5014127;28;20057;-76
2022/02/04 18:12:36;;;;;;;4.05;1.85;;;;;;;;;;5013396;28;20131;-77
2022/02/04 18:15:03;;;;;;;4.00;1.90;;;;;;;;;;5014096;28;20045;-76
2022/02/04 18:17:30;;;;;;;4.07;2.10;;;;;;;;;;5009624;28;20138;-76
2022/02/04 18:19:56;;;;;;;3.10;1.70;;;;;;;;;;5014125;28;20157;-76
2022/02/04 18:22:23;;;;;;;4.85;2.58;;;;;;;;;;5013446;28;20132;-77
2022/02/04 18:24:51;;;;;;;3.85;2.03;;;;;;;;;;5012355;28;20088;-76
2022/02/04 18:27:17;;;;;;;4.10;2.50;;;;;;;;;;5013070;28;20125;-77
2022/02/04 18:29:51;;;;;;;5.68;2.30;;;;;;;;;;5010084;28;20093;-76
2022/02/04 18:32:19;;;;;;;9.95;4.40;;;;;;;;;;5011216;28;20045;-76
2022/02/04 18:34:45;;;;;;;5.45;2.78;;;;;;;;;;5014191;28;20045;-77
2022/02/04 18:37:12;;;;;;;11.02;3.80;;;;;;;;;;5013480;28;20045;-76
2022/02/04 18:39:54;;;;;;;11.18;4.15;;;;;;;;;;5012698;28;20042;-79
2022/02/04 18:42:40;;;;;;;5.53;2.63;;;;;;;;;;5011855;28;20058;-77
2022/02/04 18:45:12;;;;;;;7.10;2.47;;;;;;;;;;5008838;28;20078;-76
2022/02/04 18:47:52;;;;;;;3.53;1.90;;;;;;;;;;4992416;28;20081;-76
2022/02/04 18:50:27;;;;;;;2.83;1.60;;;;;;;;;;4998759;28;20054;-76
2022/02/04 18:53:11;;;;;;;4.05;2.22;;;;;;;;;;4986144;28;21473;-76
2022/02/04 18:55:46;;;;;;;4.25;2.15;;;;;;;;;;4985479;28;20053;-76
2022/02/04 18:58:16;;;;;;;3.25;1.48;;;;;;;;;;4992496;28;20046;-76
2022/02/04 19:00:44;;;;;;;5.18;2.17;;;;;;;;;;4981174;28;20449;-76
2022/02/04 19:03:22;;;;;;;5.90;2.78;;;;;;;;;;4984222;28;20423;-76
2022/02/04 19:06:04;;;;;;;2.47;1.25;;;;;;;;;;4983533;28;20046;-76
2022/02/04 19:08:37;;;;;;;4.13;2.20;;;;;;;;;;4974769;28;20146;-77
2022/02/04 19:11:03;;;;;;;4.75;2.42;;;;;;;;;;4993468;28;20042;-76
2022/02/04 19:13:39;;;;;;;3.65;1.92;;;;;;;;;;4980829;28;20054;-77
2022/02/04 19:16:13;;;;;;;4.22;1.25;;;;;;;;;;4991182;28;20103;-76
2022/02/04 19:18:46;;;;;;;2.00;1.15;;;;;;;;;;4992231;28;20050;-76
2022/02/04 19:21:19;;;;;;;5.20;3.00;;;;;;;;;;4995970;28;21807;-77
2022/02/04 19:23:49;;;;;;;5.30;2.35;;;;;;;;;;4988347;28;20047;-77
2022/02/04 19:26:24;;;;;;;4.85;2.30;;;;;;;;;;4989431;28;20085;-77
2022/02/04 19:28:52;;;;;;;6.63;3.08;;;;;;;;;;4988797;28;20053;-76
2022/02/04 19:31:19;;;;;;;4.28;2.17;;;;;;;;;;4984192;28;21989;-76
2022/02/04 19:33:46;;;;;;;3.00;1.80;;;;;;;;;;4987917;28;20050;-76
2022/02/04 19:36:13;;;;;;;1.50;1.10;;;;;;;;;;4979497;28;20042;-79
2022/02/04 19:38:39;;;;;;;3.35;1.33;;;;;;;;;;5001261;28;20124;-77
2022/02/04 19:41:07;;;;;;;0.95;0.50;;;;;;;;;;4992261;28;20042;-77
2022/02/04 19:43:35;;;;;;;1.52;0.80;;;;;;;;;;4985311;28;20046;-76
2022/02/04 19:46:09;;;;;;;1.63;0.80;;;;;;;;;;4991166;28;20062;-76
2022/02/04 19:48:39;;;;;;;1.52;0.65;;;;;;;;;;5006127;28;20045;-77
2022/02/04 19:51:20;;;;;;;1.92;0.50;;;;;;;;;;5011998;28;20061;-77